createdAt,value
2019-01-31T00:02:37.585Z,4.88
2019-01-31T00:05:47.317Z,3.55
2019-01-31T00:09:14.832Z,4.92
2019-01-31T00:12:42.314Z,4.80
2019-01-31T00:15:52.058Z,3.51
2019-01-31T00:19:01.798Z,4.83
2019-01-31T00:22:18.964Z,4.16
2019-01-31T00:25:28.689Z,4.97
2019-01-31T00:28:38.462Z,4.59
2019-01-31T00:31:48.208Z,4.62
2019-01-31T00:34:57.972Z,4.35
2019-01-31T00:38:25.500Z,3.23
2019-01-31T00:41:52.975Z,4.58
2019-01-31T00:45:20.495Z,3.30
2019-01-31T00:48:47.986Z,4.56
2019-01-31T00:52:15.491Z,4.65
2019-01-31T00:55:25.206Z,4.45
2019-01-31T00:58:52.710Z,4.48
2019-01-31T01:01:53.782Z,4.39
2019-01-31T01:05:03.499Z,4.61
2019-01-31T01:08:13.221Z,4.69
2019-01-31T01:11:40.721Z,4.77
2019-01-31T01:14:50.445Z,4.84
2019-01-31T01:18:17.943Z,4.70
2019-01-31T01:21:27.691Z,4.84
2019-01-31T01:24:55.195Z,4.77
2019-01-31T01:28:22.676Z,4.60
2019-01-31T01:31:50.170Z,4.52
2019-01-31T01:35:05.590Z,4.15
2019-01-31T01:38:15.350Z,4.94
2019-01-31T01:41:25.099Z,5.02
2019-01-31T01:44:34.872Z,4.83
2019-01-31T01:47:44.588Z,4.63
2019-01-31T01:50:54.338Z,4.65
2019-01-31T01:54:04.105Z,3.07
2019-01-31T01:57:31.612Z,4.54
2019-01-31T02:00:41.314Z,4.03
2019-01-31T02:04:08.828Z,4.45
2019-01-31T02:07:18.520Z,4.87
2019-01-31T02:10:28.283Z,4.95
2019-01-31T02:13:55.785Z,3.41
2019-01-31T02:17:05.488Z,4.37
2019-01-31T02:20:32.994Z,4.57
2019-01-31T02:23:42.714Z,3.14
2019-01-31T02:27:10.195Z,4.67
2019-01-31T02:30:19.913Z,3.17
2019-01-31T02:33:29.610Z,4.69
2019-01-31T02:36:58.755Z,4.65
2019-01-31T02:40:08.469Z,4.67
2019-01-31T02:43:18.191Z,4.44
2019-01-31T02:46:27.892Z,4.38
2019-01-31T02:49:37.654Z,4.31
2019-01-31T02:53:05.170Z,4.06
2019-01-31T02:56:32.679Z,2.06
2019-01-31T02:59:42.429Z,3.77
2019-01-31T03:02:43.022Z,4.03
2019-01-31T03:06:10.502Z,4.26
2019-01-31T03:09:20.267Z,4.53
2019-01-31T03:12:29.996Z,4.54
2019-01-31T03:15:39.693Z,4.41
2019-01-31T03:19:07.194Z,4.42
2019-01-31T03:22:16.889Z,4.35
2019-01-31T03:25:44.396Z,4.30
2019-01-31T03:28:54.132Z,4.37
2019-01-31T03:32:21.602Z,4.14
2019-01-31T03:35:49.100Z,3.82
2019-01-31T03:38:58.799Z,3.57
2019-01-31T03:42:08.856Z,3.66
2019-01-31T03:45:18.554Z,3.80
2019-01-31T03:48:28.315Z,3.92
2019-01-31T03:51:55.813Z,3.81
2019-01-31T03:55:23.323Z,3.77
2019-01-31T03:58:50.797Z,3.50
2019-01-31T04:01:51.670Z,3.32
2019-01-31T04:05:19.175Z,3.28
2019-01-31T04:08:07.977Z,3.25
2019-01-31T04:10:56.776Z,2.81
2019-01-31T04:13:45.587Z,2.97
2019-01-31T04:16:34.402Z,3.12
2019-01-31T04:19:23.200Z,2.96
2019-01-31T04:22:12.028Z,3.07
2019-01-31T04:25:00.820Z,1.63
2019-01-31T04:27:49.640Z,3.21
2019-01-31T04:30:38.784Z,3.18
2019-01-31T04:33:27.588Z,3.18
2019-01-31T04:36:16.376Z,1.61
2019-01-31T04:39:26.095Z,3.23
2019-01-31T04:42:14.905Z,2.81
2019-01-31T04:48:18.828Z,1.80
2019-01-31T04:51:07.644Z,3.26
2019-01-31T04:53:56.462Z,2.26
2019-01-31T04:56:45.273Z,3.24
2019-01-31T04:59:34.063Z,3.16
2019-01-31T05:02:15.506Z,3.32
2019-01-31T05:05:25.172Z,1.78
2019-01-31T05:08:13.985Z,3.31
2019-01-31T05:11:02.768Z,3.31
2019-01-31T05:13:51.612Z,3.36
2019-01-31T05:16:40.387Z,3.04
2019-01-31T05:19:29.196Z,2.98
2019-01-31T05:22:17.990Z,2.98
2019-01-31T05:25:27.720Z,3.09
2019-01-31T05:28:16.534Z,3.29
2019-01-31T05:31:05.398Z,3.36
2019-01-31T05:33:54.299Z,3.28
2019-01-31T05:36:43.078Z,1.78
2019-01-31T05:39:31.908Z,3.17
2019-01-31T05:42:20.703Z,3.20
2019-01-31T05:45:12.160Z,3.37
2019-01-31T05:48:00.974Z,3.49
2019-01-31T05:50:49.793Z,2.11
2019-01-31T05:53:38.581Z,3.57
2019-01-31T05:59:21.559Z,3.48
2019-01-31T06:02:04.369Z,3.42
2019-01-31T06:04:53.896Z,1.78
2019-01-31T06:07:43.688Z,3.53
2019-01-31T06:10:33.692Z,3.42
2019-01-31T06:13:23.018Z,2.06
2019-01-31T06:16:11.806Z,3.56
2019-01-31T06:19:00.624Z,2.17
2019-01-31T06:21:49.407Z,3.73
2019-01-31T06:24:38.216Z,3.00
2019-01-31T06:27:27.002Z,3.86
2019-01-31T06:30:36.730Z,3.75
2019-01-31T06:33:28.309Z,2.28
2019-01-31T06:36:16.056Z,3.76
2019-01-31T06:39:25.813Z,3.93
2019-01-31T06:42:14.565Z,3.93
2019-01-31T06:48:18.480Z,3.81
2019-01-31T06:54:15.019Z,3.82
2019-01-31T06:57:22.854Z,3.96
2019-01-31T07:00:32.557Z,3.89
2019-01-31T07:03:14.055Z,3.90
2019-01-31T07:06:02.839Z,3.86
2019-01-31T07:08:51.654Z,2.51
2019-01-31T07:11:40.435Z,3.68
2019-01-31T07:14:29.248Z,3.83
2019-01-31T07:17:37.058Z,3.95
2019-01-31T07:20:25.873Z,3.81
2019-01-31T07:23:14.663Z,3.93
2019-01-31T07:26:03.466Z,4.06
2019-01-31T07:28:52.350Z,3.86
2019-01-31T07:31:41.148Z,4.08
2019-01-31T07:34:29.939Z,4.03
2019-01-31T07:40:35.351Z,3.86
2019-01-31T07:43:24.143Z,3.78
2019-01-31T07:46:13.031Z,3.93
2019-01-31T07:49:01.824Z,4.04
2019-01-31T07:51:50.707Z,4.11
2019-01-31T07:54:39.517Z,4.43
2019-01-31T07:57:28.304Z,4.44
2019-01-31T08:00:38.169Z,4.19
2019-01-31T08:03:21.782Z,4.12
2019-01-31T08:06:10.587Z,4.01
2019-01-31T08:08:59.380Z,4.07
2019-01-31T08:11:52.708Z,2.16
2019-01-31T08:14:38.689Z,3.85
2019-01-31T08:17:27.506Z,4.10
2019-01-31T08:20:37.201Z,4.23
2019-01-31T08:23:26.029Z,4.45
2019-01-31T08:26:14.810Z,4.29
2019-01-31T08:29:03.620Z,4.05
2019-01-31T08:31:52.479Z,3.61
2019-01-31T08:34:41.287Z,4.16
2019-01-31T08:37:30.080Z,4.43
2019-01-31T08:40:18.895Z,4.32
2019-01-31T08:43:07.699Z,4.59
2019-01-31T08:46:15.524Z,3.24
2019-01-31T08:52:32.745Z,4.94
2019-01-31T08:55:21.612Z,5.02
2019-01-31T09:01:16.440Z,5.19
2019-01-31T09:04:05.232Z,4.47
2019-01-31T09:06:54.032Z,5.38
2019-01-31T09:09:42.907Z,5.46
2019-01-31T09:12:31.703Z,5.37
2019-01-31T09:15:41.420Z,5.33
2019-01-31T09:18:30.288Z,5.58
2019-01-31T09:21:39.991Z,5.74
2019-01-31T09:24:49.707Z,5.89
2019-01-31T09:27:59.460Z,5.67
2019-01-31T09:31:11.888Z,5.90
2019-01-31T09:34:21.584Z,5.83
2019-01-31T09:37:49.085Z,4.54
2019-01-31T09:41:16.562Z,6.07
2019-01-31T09:44:44.066Z,6.06
2019-01-31T09:48:11.541Z,5.37
2019-01-31T09:51:39.040Z,5.92
2019-01-31T09:54:48.816Z,6.09
2019-01-31T09:57:58.516Z,6.11
2019-01-31T10:01:26.004Z,5.01
2019-01-31T10:04:26.589Z,6.55
2019-01-31T10:07:54.084Z,6.72
2019-01-31T10:11:21.857Z,6.90
2019-01-31T10:14:31.563Z,7.11
2019-01-31T10:17:59.075Z,7.16
2019-01-31T10:21:08.794Z,7.35
2019-01-31T10:24:18.568Z,7.36
2019-01-31T10:27:28.267Z,7.43
2019-01-31T10:30:55.758Z,7.49
2019-01-31T10:34:23.252Z,6.17
2019-01-31T10:37:32.963Z,7.44
2019-01-31T10:41:00.444Z,7.61
2019-01-31T10:44:27.940Z,7.49
2019-01-31T10:47:55.441Z,7.58
2019-01-31T10:51:05.167Z,7.67
2019-01-31T10:54:14.876Z,6.82
2019-01-31T10:57:22.780Z,6.77
2019-01-31T11:03:52.805Z,8.18
2019-01-31T11:10:50.702Z,7.97
2019-01-31T11:14:00.502Z,7.68
2019-01-31T11:17:10.314Z,8.60
2019-01-31T11:20:37.845Z,8.38
2019-01-31T11:23:47.654Z,8.36
2019-01-31T11:26:57.440Z,8.66
2019-01-31T11:30:24.974Z,9.00
2019-01-31T11:33:34.715Z,9.07
2019-01-31T11:37:02.242Z,9.09
2019-01-31T11:40:12.127Z,8.69
2019-01-31T11:43:39.637Z,8.70
2019-01-31T11:46:49.425Z,8.61
2019-01-31T11:50:17.010Z,7.81
2019-01-31T11:53:26.778Z,8.59
2019-01-31T11:56:10.510Z,8.11
2019-01-31T11:59:20.245Z,7.98
2019-01-31T12:02:09.303Z,7.94
2019-01-31T12:04:58.109Z,7.91
2019-01-31T12:08:07.464Z,7.98
2019-01-31T12:10:56.276Z,7.49
2019-01-31T12:13:45.066Z,7.47
2019-01-31T12:16:53.065Z,7.74
2019-01-31T12:19:41.888Z,7.57
2019-01-31T12:22:30.733Z,5.68
2019-01-31T12:28:15.386Z,7.33
2019-01-31T12:33:58.320Z,6.25
2019-01-31T12:36:47.391Z,7.02
2019-01-31T12:39:36.171Z,6.80
2019-01-31T12:42:24.980Z,5.07
2019-01-31T12:45:34.693Z,6.77
2019-01-31T12:48:23.482Z,6.90
2019-01-31T12:51:12.283Z,7.08
2019-01-31T12:53:53.626Z,6.91
2019-01-31T12:56:42.446Z,7.13
2019-01-31T12:59:31.238Z,7.09
2019-01-31T13:02:20.052Z,7.07
2019-01-31T13:08:08.290Z,6.86
2019-01-31T13:10:57.067Z,5.44
2019-01-31T13:13:46.496Z,6.57
2019-01-31T13:16:55.478Z,6.48
2019-01-31T13:19:44.279Z,6.34
2019-01-31T13:22:33.079Z,6.46
2019-01-31T13:28:37.344Z,6.07
2019-01-31T13:31:26.135Z,6.09
2019-01-31T13:34:15.022Z,6.22
2019-01-31T13:37:03.802Z,6.25
2019-01-31T13:39:52.601Z,5.18
2019-01-31T13:42:41.701Z,6.11
2019-01-31T13:45:51.392Z,6.28
2019-01-31T13:48:40.196Z,4.88
2019-01-31T13:51:28.998Z,5.66
2019-01-31T13:54:17.785Z,5.26
2019-01-31T13:57:06.586Z,6.23
2019-01-31T13:59:55.375Z,5.99
2019-01-31T14:02:44.176Z,5.91
2019-01-31T14:05:32.977Z,6.10
2019-01-31T14:08:21.803Z,5.66
2019-01-31T14:11:10.592Z,5.98
2019-01-31T14:14:18.415Z,5.57
2019-01-31T14:17:07.218Z,6.17
2019-01-31T14:19:56.004Z,6.09
2019-01-31T14:22:44.877Z,4.63
2019-01-31T14:25:33.692Z,6.12
2019-01-31T14:28:22.479Z,5.98
2019-01-31T14:31:11.289Z,4.67
2019-01-31T14:34:00.075Z,6.22
2019-01-31T14:36:48.874Z,6.16
2019-01-31T14:39:37.685Z,6.10
2019-01-31T14:42:26.480Z,6.15
2019-01-31T14:45:16.704Z,5.55
2019-01-31T14:48:25.162Z,6.26
2019-01-31T14:51:14.339Z,6.13
2019-01-31T14:54:03.162Z,6.25
2019-01-31T14:56:44.382Z,5.41
2019-01-31T14:59:33.184Z,6.49
2019-01-31T15:02:21.970Z,6.63
2019-01-31T15:05:31.747Z,6.55
2019-01-31T15:08:20.528Z,5.64
2019-01-31T15:11:09.342Z,6.49
2019-01-31T15:13:58.122Z,6.31
2019-01-31T15:16:46.939Z,5.35
2019-01-31T15:19:35.728Z,6.51
2019-01-31T15:22:24.546Z,6.39
2019-01-31T15:25:13.578Z,6.23
2019-01-31T15:28:02.452Z,6.15
2019-01-31T15:30:51.394Z,5.98
2019-01-31T15:33:40.254Z,6.00
2019-01-31T15:36:29.154Z,4.63
2019-01-31T15:39:17.945Z,6.02
2019-01-31T15:42:06.728Z,6.18
2019-01-31T15:44:55.535Z,6.24
2019-01-31T15:47:44.397Z,6.08
2019-01-31T15:50:33.433Z,6.08
2019-01-31T15:53:22.429Z,6.05
2019-01-31T15:56:12.836Z,6.04
2019-01-31T15:59:01.621Z,6.08
2019-01-31T16:01:50.494Z,4.65
2019-01-31T16:04:39.283Z,5.99
2019-01-31T16:07:28.089Z,5.67
2019-01-31T16:10:17.012Z,5.93
2019-01-31T16:16:20.834Z,4.56
2019-01-31T16:19:09.622Z,5.77
2019-01-31T16:22:17.528Z,5.76
2019-01-31T16:25:27.224Z,5.67
2019-01-31T16:28:16.032Z,4.34
2019-01-31T16:31:04.980Z,4.78
2019-01-31T16:33:53.915Z,5.85
2019-01-31T16:36:42.705Z,4.47
2019-01-31T16:39:31.542Z,5.74
2019-01-31T16:42:20.338Z,5.78
2019-01-31T16:45:30.065Z,5.83
2019-01-31T16:48:18.884Z,5.78
2019-01-31T16:51:07.936Z,5.40
2019-01-31T16:53:56.906Z,5.92
2019-01-31T16:56:45.836Z,5.90
2019-01-31T16:59:34.771Z,5.81
2019-01-31T17:02:23.550Z,5.96
2019-01-31T17:05:32.158Z,5.80
2019-01-31T17:08:21.033Z,4.89
2019-01-31T17:11:28.843Z,5.48
2019-01-31T17:14:17.651Z,5.77
2019-01-31T17:17:06.443Z,5.70
2019-01-31T17:19:55.257Z,5.56
2019-01-31T17:22:44.071Z,5.71
2019-01-31T17:25:32.890Z,5.65
2019-01-31T17:28:21.694Z,5.66
2019-01-31T17:31:10.489Z,4.74
2019-01-31T17:33:59.285Z,5.62
2019-01-31T17:36:48.092Z,5.38
2019-01-31T17:39:36.890Z,3.90
2019-01-31T17:42:25.741Z,5.03
2019-01-31T17:45:35.404Z,5.13
2019-01-31T17:48:24.211Z,5.23
2019-01-31T17:54:22.399Z,5.30
2019-01-31T17:57:11.189Z,5.24
2019-01-31T17:59:52.414Z,5.52
2019-01-31T18:02:45.555Z,5.39
2019-01-31T18:05:31.817Z,5.18
2019-01-31T18:11:28.358Z,5.22
2019-01-31T18:14:17.142Z,5.60
2019-01-31T18:17:25.046Z,5.52
2019-01-31T18:20:34.767Z,5.46
2019-01-31T18:23:23.594Z,5.26
2019-01-31T18:26:12.499Z,5.63
2019-01-31T18:29:02.908Z,5.52
2019-01-31T18:31:51.703Z,4.54
2019-01-31T18:34:40.507Z,5.61
2019-01-31T18:37:29.326Z,5.59
2019-01-31T18:40:37.437Z,5.39
2019-01-31T18:43:26.246Z,5.33
2019-01-31T18:46:07.834Z,4.23
2019-01-31T18:48:56.657Z,5.35
2019-01-31T18:57:48.049Z,5.20
2019-01-31T19:00:57.742Z,4.00
2019-01-31T19:03:46.551Z,5.13
2019-01-31T19:09:29.185Z,5.00
2019-01-31T19:12:18.003Z,3.80
2019-01-31T19:15:27.707Z,5.00
2019-01-31T19:18:16.535Z,3.78
2019-01-31T19:21:05.594Z,5.39
2019-01-31T19:27:02.203Z,5.46
2019-01-31T19:33:00.473Z,5.47
2019-01-31T19:35:49.348Z,5.50
2019-01-31T19:38:38.153Z,5.44
2019-01-31T19:41:26.951Z,5.51
2019-01-31T19:44:15.999Z,5.56
2019-01-31T19:46:57.334Z,5.42
2019-01-31T19:49:46.143Z,5.35
2019-01-31T19:52:34.935Z,4.89
2019-01-31T19:55:23.813Z,5.36
2019-01-31T19:58:12.676Z,5.27
2019-01-31T20:01:01.537Z,4.68
2019-01-31T20:03:50.454Z,5.32
2019-01-31T20:06:39.358Z,5.00
2019-01-31T20:12:37.715Z,4.97
2019-01-31T20:15:26.830Z,4.79
2019-01-31T20:21:10.736Z,4.81
2019-01-31T20:26:53.745Z,4.78
2019-01-31T20:29:42.549Z,4.74
2019-01-31T20:32:31.333Z,4.29
2019-01-31T20:38:28.466Z,4.72
2019-01-31T20:41:17.277Z,3.25
2019-01-31T20:44:06.156Z,4.76
2019-01-31T20:46:47.563Z,2.99
2019-01-31T20:49:36.407Z,4.53
2019-01-31T20:52:25.319Z,4.57
2019-01-31T20:55:35.111Z,4.48
2019-01-31T20:58:24.061Z,4.31
2019-01-31T21:04:07.810Z,2.69
2019-01-31T21:06:56.597Z,3.94
2019-01-31T21:09:45.502Z,3.86
2019-01-31T21:12:34.541Z,3.72
2019-01-31T21:15:44.335Z,3.65
2019-01-31T21:18:33.210Z,3.58
2019-01-31T21:21:22.153Z,2.04
2019-01-31T21:24:10.991Z,2.96
2019-01-31T21:26:59.884Z,3.35
2019-01-31T21:29:48.672Z,3.56
2019-01-31T21:32:31.480Z,3.48
2019-01-31T21:38:49.261Z,3.49
2019-01-31T21:41:38.062Z,2.76
2019-01-31T21:44:26.869Z,3.33
2019-01-31T21:47:15.681Z,1.68
2019-01-31T21:50:25.381Z,1.81
2019-01-31T21:53:14.188Z,2.14
2019-01-31T21:56:02.988Z,3.09
2019-01-31T21:58:51.800Z,3.04
2019-01-31T22:01:40.594Z,2.95
2019-01-31T22:04:29.408Z,1.17
2019-01-31T22:07:18.205Z,2.97
2019-01-31T22:10:27.925Z,2.42
2019-01-31T22:13:16.742Z,3.07
2019-01-31T22:16:05.604Z,2.95
2019-01-31T22:18:54.718Z,2.82
2019-01-31T22:21:43.531Z,2.78
2019-01-31T22:24:32.322Z,2.74
2019-01-31T22:27:21.142Z,2.78
2019-01-31T22:30:30.324Z,1.32
2019-01-31T22:33:12.351Z,2.87
2019-01-31T22:36:01.172Z,2.95
2019-01-31T22:38:49.992Z,3.01
2019-01-31T22:41:39.248Z,1.81
2019-01-31T22:44:28.064Z,2.93
2019-01-31T22:47:25.717Z,2.87
2019-01-31T22:50:28.302Z,1.97
2019-01-31T22:53:17.094Z,2.94
2019-01-31T22:56:05.905Z,2.90
2019-01-31T22:58:54.713Z,2.87
2019-01-31T23:04:42.748Z,2.67
2019-01-31T23:07:31.555Z,2.64
2019-01-31T23:10:20.365Z,2.73
2019-01-31T23:13:09.182Z,2.95
2019-01-31T23:15:57.975Z,2.95
2019-01-31T23:18:46.778Z,2.88
2019-01-31T23:21:35.666Z,3.00
2019-01-31T23:24:24.466Z,3.03
2019-01-31T23:27:13.283Z,2.99
2019-01-31T23:30:02.072Z,3.11
2019-01-31T23:35:43.327Z,3.23
2019-01-31T23:38:32.140Z,2.07
2019-01-31T23:41:20.921Z,3.03
2019-01-31T23:44:09.736Z,3.33
2019-01-31T23:46:58.541Z,3.55
2019-01-31T23:49:47.351Z,3.55
2019-01-31T23:52:36.139Z,3.53
2019-01-31T23:55:24.958Z,3.68
2019-01-31T23:58:13.744Z,3.65
